Time;durP1;ratioP1;P1;durP2;ratioP2;P2;SDS_P1;SDS_P2;PMS_P1;PMS_P2;Temp;Humidity;BMP_temperature;BMP_pressure;BME280_temperature;BME280_humidity;BME280_pressure;Samples;Min_cycle;Max_cycle;Signal;HPM_P1;HPM_P2
2022/08/19 00:02:11;;;;;;;17.60;15.20;;;;;;;21.77;65.05;98105.98;434126;1268;96140;-40
2022/08/19 00:12:18;;;;;;;25.40;16.50;;;;;;;21.76;65.38;98104.02;433893;1266;109774;-40
2022/08/19 00:42:41;;;;;;;22.40;17.40;;;;;;;21.50;66.24;98080.30;433268;1268;109917;-42
2022/08/19 00:52:51;;;;;;;19.90;15.80;;;;;;;21.43;66.46;98079.50;433954;1266;108808;-41
2022/08/19 01:02:58;;;;;;;16.80;14.80;;;;;;;21.35;66.69;98070.06;434423;1266;96118;-41
2022/08/19 01:13:06;;;;;;;21.10;14.50;;;;;;;21.28;67.04;98060.25;433973;1266;110352;-41
2022/08/19 01:23:15;;;;;;;22.60;17.90;;;;;;;21.23;67.35;98056.98;433980;1267;108765;-40
2022/08/19 01:33:23;;;;;;;21.20;14.70;;;;;;;21.00;67.46;98042.79;433812;1268;95706;-41
2022/08/19 01:43:30;;;;;;;28.50;16.20;;;;;;;20.93;67.92;98031.80;434089;1268;109363;-41
2022/08/19 01:53:38;;;;;;;20.10;14.90;;;;;;;20.95;68.07;98026.52;434422;1268;108895;-41
2022/08/19 02:03:45;;;;;;;23.90;16.20;;;;;;;20.84;68.22;98025.23;433927;1267;96210;-40
2022/08/19 02:13:53;;;;;;;18.30;15.40;;;;;;;20.74;68.51;98008.34;434010;1267;109707;-40
2022/08/19 02:24:00;;;;;;;19.70;16.10;;;;;;;20.79;69.04;98006.82;434146;1267;107926;-40
2022/08/19 02:34:08;;;;;;;26.30;16.50;;;;;;;20.78;68.95;97990.30;434222;1267;96143;-40
2022/08/19 02:44:16;;;;;;;26.60;17.20;;;;;;;20.76;69.19;97990.39;433851;1268;108913;-40
2022/08/19 02:54:37;;;;;;;28.40;18.70;;;;;;;20.59;69.42;97994.27;434107;1266;108828;-39
2022/08/19 03:04:45;;;;;;;20.20;16.00;;;;;;;20.49;69.70;97995.45;433630;1268;96150;-41
2022/08/19 03:14:51;;;;;;;;;;;;;;;20.57;69.94;98005.34;433952;1267;109751;-40
2022/08/19 03:24:58;;;;;;;;;;;;;;;20.46;70.06;98013.48;434084;1268;109595;-40
2022/08/19 03:35:03;;;;;;;;;;;;;;;20.46;70.11;98013.31;433900;1268;95330;-39
2022/08/19 03:45:10;;;;;;;;;;;;;;;20.36;70.37;97999.30;434096;1267;109072;-40
2022/08/19 03:55:15;;;;;;;;;;;;;;;20.41;70.46;98007.48;434102;1267;95559;-41
2022/08/19 04:05:21;;;;;;;;;;;;;;;20.40;70.69;98009.58;434235;1268;109571;-41
2022/08/19 04:15:35;;;;;;;;;;;;;;;20.48;70.75;98020.34;433537;1267;108987;-41
2022/08/19 04:25:42;;;;;;;;;;;;;;;20.53;70.86;98022.41;433867;1267;96143;-42
2022/08/19 04:35:48;;;;;;;;;;;;;;;20.69;71.03;98038.10;434021;1268;109000;-41
2022/08/19 04:45:54;;;;;;;;;;;;;;;21.13;71.00;98048.95;433957;1268;96837;-41
2022/08/19 04:56:04;;;;;;;;;;;;;;;22.06;70.81;98057.44;433936;1266;96156;-40
2022/08/19 05:06:12;;;;;;;;;;;;;;;23.01;69.95;98057.90;433148;1267;1676089;-40
2022/08/19 05:16:18;;;;;;;;;;;;;;;23.83;69.03;98064.52;433882;1268;108510;-40
2022/08/19 05:26:25;;;;;;;;;;;;;;;24.51;68.09;98063.86;434194;1268;108190;-43
2022/08/19 05:36:35;;;;;;;;;;;;;;;25.09;67.06;98064.04;433733;1268;96502;-41
2022/08/19 05:46:40;;;;;;;;;;;;;;;25.86;66.00;98066.29;433921;1267;96534;-41
2022/08/19 05:56:47;;;;;;;;;;;;;;;26.58;64.91;98073.70;434112;1267;109396;-41
2022/08/19 06:06:53;;;;;;;;;;;;;;;26.87;63.95;98080.65;433931;1268;108884;-41
2022/08/19 06:27:10;;;;;;;;;;;;;;;27.67;60.63;98075.86;434158;1266;96179;-41
2022/08/19 06:37:16;;;;;;;;;;;;;;;27.74;60.47;98086.57;434112;1267;96843;-41
2022/08/19 06:47:22;;;;;;;;;;;;;;;27.78;60.12;98097.92;434241;1267;108784;-40
2022/08/19 06:57:34;;;;;;;;;;;;;;;28.15;59.97;98097.59;434129;1267;108789;-41
2022/08/19 07:07:42;;;;;;;;;;;;;;;28.80;59.15;98102.50;433904;1267;108838;-40
2022/08/19 07:17:52;;;;;;;;;;;;;;;29.24;58.07;98127.11;433911;1267;96163;-40
2022/08/19 07:27:57;;;;;;;;;;;;;;;29.43;56.97;98137.30;434317;1267;96233;-41
2022/08/19 07:38:05;;;;;;;;;;;;;;;29.39;56.82;98135.21;433989;1268;109526;-41
2022/08/19 07:48:12;;;;;;;;;;;;;;;29.61;56.41;98144.44;433912;1268;108786;-41
2022/08/19 07:58:19;;;;;;;;;;;;;;;29.31;55.97;98150.26;433933;1268;108188;-41
2022/08/19 08:18:52;;;;;;;;;;;;;;;29.09;56.34;98167.00;434233;1267;97078;-40
2022/08/19 08:28:58;;;;;;;;;;;;;;;28.98;56.38;98181.45;433888;1268;109916;-41
2022/08/19 08:39:04;;;;;;;;;;;;;;;28.76;56.12;98183.27;434147;1267;107879;-42
2022/08/19 08:49:11;;;;;;;;;;;;;;;28.77;56.29;98180.87;433623;1267;108767;-41
2022/08/19 09:09:28;;;;;;;;;;;;;;;29.34;55.20;98166.89;434063;1267;97251;-41
2022/08/19 09:19:35;;;;;;;;;;;;;;;30.03;53.69;98158.84;434339;1267;108959;-40
2022/08/19 09:29:40;;;;;;;;;;;;;;;30.08;52.34;98159.46;434372;1267;107183;-40
2022/08/19 09:39:46;;;;;;;;;;;;;;;30.31;51.29;98157.79;433903;1267;96162;-42
2022/08/19 09:49:54;;;;;;;;;;;;;;;30.13;51.32;98164.51;434226;1267;98344;-40
2022/08/19 10:00:04;;;;;;;;;;;;;;;29.94;51.41;98162.12;434045;1267;111254;-41
2022/08/19 10:10:11;;;;;;;;;;;;;;;30.02;51.25;98157.64;433995;1267;108307;-41
2022/08/19 10:20:16;;;;;;;;;;;;;;;30.56;50.72;98164.71;434335;1267;108830;-39
2022/08/19 10:30:21;;;;;;;;;;;;;;;30.97;49.39;98155.86;433824;1268;97945;-40
2022/08/19 10:40:29;;;;;;;;;;;;;;;31.19;48.95;98161.71;434224;1267;111072;-39
2022/08/19 11:00:59;;;;;;;;;;;;;;;31.59;47.39;98154.29;434176;1267;108666;-41
2022/08/19 11:11:07;;;;;;;;;;;;;;;31.85;46.61;98157.59;433923;1267;97874;-42
2022/08/19 11:21:12;;;;;;;;;;;;;;;32.08;46.19;98141.47;434446;1267;111262;-41
2022/08/19 11:31:18;;;;;;;;;;;;;;;32.40;44.63;98122.01;434556;1266;97479;-41
2022/08/19 11:41:25;;;;;;;;;;;;;;;32.47;44.28;98114.05;433463;1266;97883;-41
2022/08/19 11:51:31;;;;;;;;;;;;;;;32.38;43.63;98117.15;434264;1266;97909;-41
2022/08/19 12:01:40;;;;;;;;;;;;;;;32.40;43.42;98121.52;434057;1268;111336;-42
2022/08/19 12:11:46;;;;;;;;;;;;;;;32.06;43.32;98127.00;434189;1266;109033;-41
2022/08/19 12:21:52;;;;;;;;;;;;;;;32.04;43.88;98124.90;434253;1266;108384;-41
2022/08/19 12:42:03;;;;;;;;;;;;;;;32.43;43.43;98116.63;433713;1267;111301;-41
2022/08/19 12:52:09;;;;;;;;;;;;;;;32.43;43.99;98114.36;433977;1268;97548;-41
2022/08/19 13:02:15;;;;;;;;;;;;;;;32.57;44.83;98110.78;434273;1266;97875;-43
2022/08/19 13:12:20;;;;;;;;;;;;;;;32.40;45.58;98094.65;433844;1267;97911;-42
2022/08/19 13:22:29;;;;;;;;;;;;;;;32.29;45.74;98090.39;434077;1265;109403;-41
2022/08/19 13:42:58;;;;;;;;;;;;;;;32.68;46.08;98079.84;433870;1267;109836;-42
2022/08/19 13:53:04;;;;;;;;;;;;;;;32.98;46.26;98090.05;434096;1267;96659;-41
2022/08/19 14:03:10;;;;;;;;;;;;;;;33.14;44.64;98088.32;433923;1266;111207;-41
2022/08/19 14:13:17;;;;;;;;;;;;;;;32.90;44.95;98090.59;434153;1266;109906;-41
2022/08/19 14:23:22;;;;;;;;;;;;;;;32.65;45.73;98089.68;434122;1266;108837;-40
2022/08/19 14:43:35;;;;;;;;;;;;;;;32.36;47.14;98068.98;434160;1266;111055;-40
2022/08/19 14:53:41;;;;;;;;;;;;;;;32.60;46.81;98062.39;434342;1266;108975;-41
2022/08/19 15:03:47;;;;;;;;;;;;;;;32.65;46.59;98056.06;434233;1267;108802;-41
2022/08/19 15:34:02;;;;;;;;;;;;;;;32.63;46.22;98024.29;434170;1266;108836;-42
2022/08/19 15:54:13;;;;;;;;;;;;;;;32.00;47.82;98010.56;434271;1266;111209;-41
2022/08/19 16:14:42;;;;;;;;;;;;;;;30.98;50.05;98010.79;434425;1265;108857;-41
2022/08/19 16:24:47;;;;;;;;;;;;;;;30.37;50.62;98017.11;434152;1267;97483;-41
2022/08/19 16:34:51;;;;;;;;;;;;;;;29.86;51.73;98031.97;434320;1266;97887;-41
2022/08/19 16:44:57;;;;;;;;;;;;;;;29.44;52.64;98056.55;434479;1266;109022;-42
2022/08/19 17:05:08;;;;;;;;;;;;;;;28.69;53.29;98075.64;433258;1265;1631925;-41
2022/08/19 17:15:13;;;;;;;;;;;;;;;28.39;54.12;98080.44;434560;1265;97489;-41
2022/08/19 17:25:19;;;;;;;;;;;;;;;27.99;55.16;98071.95;434013;1265;97894;-40
2022/08/19 17:35:26;;;;;;;;;;;;;;;27.67;55.65;98054.36;434159;1265;97874;-40
2022/08/19 17:45:30;;;;;;;;;;;;;;;27.53;56.10;98091.30;434170;1268;110967;-40
2022/08/19 17:55:36;;;;;;;;;;;;;;;27.31;56.76;98096.39;434334;1265;97468;-40
2022/08/19 18:15:49;;;;;;;;;;;;;;;26.84;57.84;98109.17;434117;1265;111063;-40
2022/08/19 18:25:55;;;;;;;;;;;;;;;26.60;58.75;98145.44;434251;1267;109010;-40
2022/08/19 18:36:02;;;;;;;;;;;;;;;26.46;59.26;98164.96;434282;1267;97342;-40
2022/08/19 19:06:47;;;;;;;;;;;;;;;25.86;59.65;98244.67;434328;1265;98752;-41
2022/08/19 19:16:52;;;;;;;;;;;;;;;25.60;59.91;98265.57;434429;1265;110052;-41
2022/08/19 19:27:00;;;;;;;;;;;;;;;25.28;60.62;98287.45;433665;1268;108732;-41
2022/08/19 19:37:05;;;;;;;;;;;;;;;24.91;61.60;98309.39;434175;1265;108763;-40
2022/08/19 19:47:11;;;;;;;;;;;;;;;24.92;62.45;98293.09;433956;1267;97875;-40
2022/08/19 19:57:17;;;;;;;;;;;;;;;24.71;62.88;98269.02;434402;1266;107779;-40
2022/08/19 20:17:28;;;;;;;;;;;;;;;23.68;64.94;98350.92;434402;1265;111076;-40
2022/08/19 20:27:35;;;;;;;;;;;;;;;23.11;66.18;98304.48;434244;1268;108690;-40
2022/08/19 20:37:44;;;;;;;;;;;;;;;22.89;67.31;98291.17;434066;1266;97455;-41
2022/08/19 20:47:50;;;;;;;;;;;;;;;22.83;67.86;98258.59;433710;1266;108849;-41
2022/08/19 21:28:12;;;;;;;;;;;;;;;22.59;69.52;98223.31;434270;1265;97493;-40
2022/08/19 21:38:37;;;;;;;;;;;;;;;22.53;69.90;98210.98;434033;1266;107362;-41
2022/08/19 21:48:43;;;;;;;;;;;;;;;22.48;70.56;98211.27;433984;1267;96652;-40
2022/08/19 21:58:49;;;;;;;;;;;;;;;22.47;70.50;98246.23;434035;1265;111104;-41
2022/08/19 22:19:00;;;;;;;;;;;;;;;21.89;69.86;98304.20;434165;1265;98653;-42
2022/08/19 22:29:05;;;;;;;;;;;;;;;20.43;72.78;98305.71;434087;1265;111958;-43
2022/08/19 22:39:10;;;;;;;;;;;;;;;19.64;74.28;98257.54;434158;1265;108880;-41
2022/08/19 22:49:16;;;;;;;;;;;;;;;19.49;75.32;98241.38;433532;1267;97920;-42
2022/08/19 22:59:21;;;;;;;;;;;;;;;19.72;76.06;98249.91;434093;1265;108806;-39
2022/08/19 23:09:26;;;;;;;;;;;;;;;20.03;76.60;98301.80;434149;1266;97904;-41
2022/08/19 23:19:35;;;;;;;;;;;;;;;19.99;76.59;98297.84;434128;1267;111040;-41
2022/08/19 23:40:03;;;;;;;;;;;;;;;19.84;77.40;98274.69;433909;1267;97918;-40
2022/08/19 23:50:11;;;;;;;;;;;;;;;19.88;78.20;98288.72;433971;1265;109146;-40
